Tuesday, January 16, 2018, 5:14 PM GMT
Back to Local

CYGP, Gaspe, Que.

Location: , , Canada Lat: 48.767
Local Time: 5:14 PM GMT (17:14 GMT) Lon: -64.483
Time Zone: GMT Elev: 108 ft

Show me the last for .
Show Decoded

2018-01-16 17:00 METAR CYGP 161700Z 28004KT 250V320 10SM OVC018 M11/M16 A3041 RMK SC8 PRESFR
                 SLP302 =
2018-01-16 16:00 METAR CYGP 161600Z 27008KT 15SM OVC020 M11/M16 A3046 RMK SC8 SLP320 =
2018-01-16 15:48 METAR CYGP 161548Z 27007KT 15SM OVC020 M12/M16 A3047 RMK SC8 SLP322 =
2018-01-16 15:00 METAR CYGP 161500Z 26008KT 10SM -SN OVC020 M12/M16 A3050 RMK SC8 SLP332 =
2018-01-16 14:53 METAR CYGP 161453Z 25006KT 10SM -SN OVC020 M12/M16 A3050 RMK SC8 SLP333 =
2018-01-16 14:00 METAR CYGP 161400Z 28007KT 15SM OVC020 M13/M17 A3051 RMK SC8 SLP336 =
2018-01-16 13:00 METAR CYGP 161300Z 26006KT 15SM OVC020 M15/M19 A3051 RMK SC8 SLP337 =
2018-01-16 12:00 METAR CYGP 161200Z 27005KT 15SM OVC020 M16/M19 A3053 RMK SC8 SLP344 =
2018-01-16 11:00 METAR CYGP 161100Z 27006KT 15SM -SN OVC020 M16/M19 A3055 RMK SC8 SLP350 =
2018-01-16 10:00 METAR CYGP 161000Z 27005KT 15SM -SN OVC020 M16/M20 A3055 RMK SC8 SLP351 =
2018-01-16 09:20 METAR CYGP 160920Z 00000KT 15SM -SN OVC020 M16/M19 A3056 RMK SC8 SLP353 =
2018-01-16 09:00 METAR CYGP 160900Z 28003KT 15SM OVC020 M18/M21 A3056 RMK SC8 SLP355 =
2018-01-16 08:00 METAR CYGP 160800Z 28004KT 15SM FEW025 BKN220 M19/M22 A3061 RMK SC2CI3 SLP369 =
2018-01-16 07:00 METAR CYGP 160700Z 26006KT 15SM SCT220 M18/M21 A3064 RMK CI4 SLP379 =
2018-01-16 06:00 METAR CYGP 160600Z 28004KT 15SM BKN220 M17/M20 A3066 RMK CI6 SLP387 =
2018-01-16 05:00 METAR CYGP 160500Z 26003KT 15SM BKN220 M17/M20 A3067 RMK CI5 SLP391 =
2018-01-16 04:00 METAR CYGP 160400Z 27003KT 15SM FEW020 BKN220 M16/M19 A3072 RMK SC2CI3 SLP409 =
2018-01-16 03:00 METAR CYGP 160300Z 28004KT 15SM SCT020 BKN220 M17/M20 A3075 RMK SC4CI3 PRESFR
                 SLP417 =
2018-01-16 02:00 METAR CYGP 160200Z VRB02KT 15SM OVC020 M16/M19 A3080 RMK SC8 SLP436 =
2018-01-16 01:00 METAR CYGP 160100Z 27002KT 15SM SCT020 BKN180 M16/M19 A3083 RMK SC3AC2 SLP446 =
2018-01-16 00:00 METAR CYGP 160000Z 27004KT 15SM SCT022 BKN180 M16/M19 A3085 RMK SC3AC3 SLP454 =
2018-01-15 23:00 METAR CYGP 152300Z 32004KT 15SM SCT022 BKN180 OVC220 M15/M18 A3086 RMK SC4AC2CI2
                 SLP455 =
2018-01-15 22:00 METAR CYGP 152200Z 29003KT 15SM BKN022 BKN190 BKN220 M15/M19 A3084 RMK SC5AC1CI1
                 SLP449 =
2018-01-15 21:00 METAR CYGP 152100Z 35004KT 15SM BKN025 OVC190 M13/M18 A3085 RMK SC6AC2 PRESFR
                 SLP452 =
2018-01-15 20:00 METAR CYGP 152000Z VRB02KT 15SM BKN025 BKN220 M12/M18 A3090 RMK SC7CI1 CI TR
                 SLP467 =
2018-01-15 19:00 METAR CYGP 151900Z 04003KT 010V070 15SM BKN025 OVC180 M12/M18 A3089 RMK SC5AS3
                 SLP465 =
2018-01-15 18:00 METAR CYGP 151800Z 01003KT 310V050 10SM -SN SCT025 BKN070 M12/M18 A3089 RMK
                 SC4AC3 SLP464 =
2018-01-15 17:45 METAR CYGP 151745Z 35003KT 330V030 10SM -SN SCT025 BKN070 M12/M18 A3089 RMK
                 SC4AC3 SLP465 =

Support USWX by starting your Amazon purchase here.